sensor_id;sensor_type;location;lat;lon;timestamp;temperature;humidity
21123;DHT22;10719;48.130;11.630;2022-10-16T00:01:12;13.60;99.90
21123;DHT22;10719;48.130;11.630;2022-10-16T00:03:39;13.50;99.90
21123;DHT22;10719;48.130;11.630;2022-10-16T00:06:05;13.50;99.90
21123;DHT22;10719;48.130;11.630;2022-10-16T00:08:31;13.50;99.90
21123;DHT22;10719;48.130;11.630;2022-10-16T00:11:06;13.50;99.90
21123;DHT22;10719;48.130;11.630;2022-10-16T00:13:34;13.50;99.90
21123;DHT22;10719;48.130;11.630;2022-10-16T00:16:01;13.50;99.90
21123;DHT22;10719;48.130;11.630;2022-10-16T00:18:27;13.50;99.90
21123;DHT22;10719;48.130;11.630;2022-10-16T00:20:53;13.50;99.90
21123;DHT22;10719;48.130;11.630;2022-10-16T00:23:20;13.50;99.90
21123;DHT22;10719;48.130;11.630;2022-10-16T00:25:57;13.40;99.90
21123;DHT22;10719;48.130;11.630;2022-10-16T00:28:23;13.40;99.90
21123;DHT22;10719;48.130;11.630;2022-10-16T00:30:49;13.40;99.90
21123;DHT22;10719;48.130;11.630;2022-10-16T00:33:15;13.30;99.90
21123;DHT22;10719;48.130;11.630;2022-10-16T00:35:40;13.30;99.90
21123;DHT22;10719;48.130;11.630;2022-10-16T00:38:06;13.30;99.90
21123;DHT22;10719;48.130;11.630;2022-10-16T00:40:31;13.30;99.90
21123;DHT22;10719;48.130;11.630;2022-10-16T00:42:57;13.30;99.90
21123;DHT22;10719;48.130;11.630;2022-10-16T00:45:23;13.30;99.90
21123;DHT22;10719;48.130;11.630;2022-10-16T00:47:50;13.30;99.90
21123;DHT22;10719;48.130;11.630;2022-10-16T00:50:30;13.20;99.90
21123;DHT22;10719;48.130;11.630;2022-10-16T00:52:57;13.20;99.90
21123;DHT22;10719;48.130;11.630;2022-10-16T00:55:24;13.20;99.90
21123;DHT22;10719;48.130;11.630;2022-10-16T00:57:50;13.20;99.90
21123;DHT22;10719;48.130;11.630;2022-10-16T01:00:19;13.20;99.90
21123;DHT22;10719;48.130;11.630;2022-10-16T01:02:55;13.20;99.90
21123;DHT22;10719;48.130;11.630;2022-10-16T01:05:23;13.20;99.90
21123;DHT22;10719;48.130;11.630;2022-10-16T01:07:56;13.20;99.90
21123;DHT22;10719;48.130;11.630;2022-10-16T01:16:16;13.00;99.90
21123;DHT22;10719;48.130;11.630;2022-10-16T01:19:19;13.00;99.90
21123;DHT22;10719;48.130;11.630;2022-10-16T01:21:40;12.90;99.90
21123;DHT22;10719;48.130;11.630;2022-10-16T01:29:52;12.90;99.90
21123;DHT22;10719;48.130;11.630;2022-10-16T01:34:54;13.00;99.90
21123;DHT22;10719;48.130;11.630;2022-10-16T01:40:13;13.00;99.90
21123;DHT22;10719;48.130;11.630;2022-10-16T01:42:42;12.90;99.90
21123;DHT22;10719;48.130;11.630;2022-10-16T01:45:13;12.90;99.90
21123;DHT22;10719;48.130;11.630;2022-10-16T01:47:40;12.80;99.90
21123;DHT22;10719;48.130;11.630;2022-10-16T01:50:08;12.90;99.90
21123;DHT22;10719;48.130;11.630;2022-10-16T01:52:39;12.80;99.90
21123;DHT22;10719;48.130;11.630;2022-10-16T01:55:06;12.90;99.90
21123;DHT22;10719;48.130;11.630;2022-10-16T01:57:36;12.80;99.90
21123;DHT22;10719;48.130;11.630;2022-10-16T02:00:07;12.80;99.90
21123;DHT22;10719;48.130;11.630;2022-10-16T02:02:34;12.70;99.90
21123;DHT22;10719;48.130;11.630;2022-10-16T02:05:28;12.70;99.90
21123;DHT22;10719;48.130;11.630;2022-10-16T02:07:56;12.70;99.90
21123;DHT22;10719;48.130;11.630;2022-10-16T02:10:23;12.70;99.90
21123;DHT22;10719;48.130;11.630;2022-10-16T02:13:03;12.70;99.90
21123;DHT22;10719;48.130;11.630;2022-10-16T02:15:30;12.70;99.90
21123;DHT22;10719;48.130;11.630;2022-10-16T02:17:56;12.70;99.90
21123;DHT22;10719;48.130;11.630;2022-10-16T02:20:28;12.70;99.90
21123;DHT22;10719;48.130;11.630;2022-10-16T02:22:56;12.80;99.90
21123;DHT22;10719;48.130;11.630;2022-10-16T02:25:30;12.70;99.90
21123;DHT22;10719;48.130;11.630;2022-10-16T02:28:16;12.70;99.90
21123;DHT22;10719;48.130;11.630;2022-10-16T02:30:47;12.70;99.90
21123;DHT22;10719;48.130;11.630;2022-10-16T02:33:15;12.70;99.90
21123;DHT22;10719;48.130;11.630;2022-10-16T02:35:43;12.70;99.90
21123;DHT22;10719;48.130;11.630;2022-10-16T02:38:10;12.80;99.90
21123;DHT22;10719;48.130;11.630;2022-10-16T02:40:37;12.80;99.90
21123;DHT22;10719;48.130;11.630;2022-10-16T02:43:04;12.70;99.90
21123;DHT22;10719;48.130;11.630;2022-10-16T02:45:31;12.70;99.90
21123;DHT22;10719;48.130;11.630;2022-10-16T02:47:56;12.70;99.90
21123;DHT22;10719;48.130;11.630;2022-10-16T02:50:22;12.70;99.90
21123;DHT22;10719;48.130;11.630;2022-10-16T02:52:49;12.70;99.90
21123;DHT22;10719;48.130;11.630;2022-10-16T02:55:15;12.60;99.90
21123;DHT22;10719;48.130;11.630;2022-10-16T02:57:40;12.60;99.90
21123;DHT22;10719;48.130;11.630;2022-10-16T03:00:12;12.60;99.90
21123;DHT22;10719;48.130;11.630;2022-10-16T03:02:38;12.60;99.90
21123;DHT22;10719;48.130;11.630;2022-10-16T03:05:04;12.60;99.90
21123;DHT22;10719;48.130;11.630;2022-10-16T03:07:30;12.50;99.90
21123;DHT22;10719;48.130;11.630;2022-10-16T03:09:56;12.50;99.90
21123;DHT22;10719;48.130;11.630;2022-10-16T03:12:22;12.50;99.90
21123;DHT22;10719;48.130;11.630;2022-10-16T03:14:47;12.50;99.90
21123;DHT22;10719;48.130;11.630;2022-10-16T03:17:13;12.50;99.90
21123;DHT22;10719;48.130;11.630;2022-10-16T03:19:41;12.40;99.90
21123;DHT22;10719;48.130;11.630;2022-10-16T03:22:07;12.40;99.90
21123;DHT22;10719;48.130;11.630;2022-10-16T03:24:33;12.40;99.90
21123;DHT22;10719;48.130;11.630;2022-10-16T03:26:59;12.40;99.90
21123;DHT22;10719;48.130;11.630;2022-10-16T03:29:25;12.30;99.90
21123;DHT22;10719;48.130;11.630;2022-10-16T03:31:51;12.30;99.90
21123;DHT22;10719;48.130;11.630;2022-10-16T03:34:17;12.30;99.90
21123;DHT22;10719;48.130;11.630;2022-10-16T03:36:42;12.20;99.90
21123;DHT22;10719;48.130;11.630;2022-10-16T03:39:08;12.20;99.90
21123;DHT22;10719;48.130;11.630;2022-10-16T03:41:33;12.20;99.90
21123;DHT22;10719;48.130;11.630;2022-10-16T03:43:59;12.30;99.90
21123;DHT22;10719;48.130;11.630;2022-10-16T03:46:24;12.30;99.90
21123;DHT22;10719;48.130;11.630;2022-10-16T03:48:50;12.40;99.90
21123;DHT22;10719;48.130;11.630;2022-10-16T03:51:15;12.40;99.90
21123;DHT22;10719;48.130;11.630;2022-10-16T03:53:41;12.40;99.90
21123;DHT22;10719;48.130;11.630;2022-10-16T03:56:07;12.50;99.90
21123;DHT22;10719;48.130;11.630;2022-10-16T03:58:32;12.50;99.90
21123;DHT22;10719;48.130;11.630;2022-10-16T04:00:58;12.50;99.90
21123;DHT22;10719;48.130;11.630;2022-10-16T04:03:23;12.60;99.90
21123;DHT22;10719;48.130;11.630;2022-10-16T04:05:49;12.70;99.90
21123;DHT22;10719;48.130;11.630;2022-10-16T04:08:15;12.60;99.90
21123;DHT22;10719;48.130;11.630;2022-10-16T04:10:43;12.60;99.90
21123;DHT22;10719;48.130;11.630;2022-10-16T04:13:09;12.60;99.90
21123;DHT22;10719;48.130;11.630;2022-10-16T04:15:34;12.60;99.90
21123;DHT22;10719;48.130;11.630;2022-10-16T04:18:00;12.60;99.90
21123;DHT22;10719;48.130;11.630;2022-10-16T04:20:26;12.60;99.90
21123;DHT22;10719;48.130;11.630;2022-10-16T04:22:51;12.60;99.90
21123;DHT22;10719;48.130;11.630;2022-10-16T04:25:17;12.60;99.90
21123;DHT22;10719;48.130;11.630;2022-10-16T04:27:42;12.60;99.90
21123;DHT22;10719;48.130;11.630;2022-10-16T04:30:10;12.60;99.90
21123;DHT22;10719;48.130;11.630;2022-10-16T04:32:36;12.60;99.90
21123;DHT22;10719;48.130;11.630;2022-10-16T04:35:01;12.60;99.90
21123;DHT22;10719;48.130;11.630;2022-10-16T04:37:28;12.60;99.90
21123;DHT22;10719;48.130;11.630;2022-10-16T04:39:54;12.70;99.90
21123;DHT22;10719;48.130;11.630;2022-10-16T04:42:20;12.60;99.90
21123;DHT22;10719;48.130;11.630;2022-10-16T04:44:46;12.60;99.90
21123;DHT22;10719;48.130;11.630;2022-10-16T04:47:12;12.70;99.90
21123;DHT22;10719;48.130;11.630;2022-10-16T04:49:38;12.70;99.90
21123;DHT22;10719;48.130;11.630;2022-10-16T04:52:03;12.70;99.90
21123;DHT22;10719;48.130;11.630;2022-10-16T04:54:29;12.70;99.90
21123;DHT22;10719;48.130;11.630;2022-10-16T04:56:55;12.70;99.90
21123;DHT22;10719;48.130;11.630;2022-10-16T04:59:21;12.70;99.90
21123;DHT22;10719;48.130;11.630;2022-10-16T05:01:47;12.80;99.90
21123;DHT22;10719;48.130;11.630;2022-10-16T05:04:13;12.80;99.90
21123;DHT22;10719;48.130;11.630;2022-10-16T05:06:40;12.70;99.90
21123;DHT22;10719;48.130;11.630;2022-10-16T05:09:06;12.80;99.90
21123;DHT22;10719;48.130;11.630;2022-10-16T05:11:32;12.80;99.90
21123;DHT22;10719;48.130;11.630;2022-10-16T05:13:58;12.70;99.90
21123;DHT22;10719;48.130;11.630;2022-10-16T05:16:24;12.80;99.90
21123;DHT22;10719;48.130;11.630;2022-10-16T05:18:51;12.80;99.90
21123;DHT22;10719;48.130;11.630;2022-10-16T05:21:17;12.90;99.90
21123;DHT22;10719;48.130;11.630;2022-10-16T05:23:43;12.90;99.90
21123;DHT22;10719;48.130;11.630;2022-10-16T05:26:08;12.90;99.90
21123;DHT22;10719;48.130;11.630;2022-10-16T05:28:35;12.90;99.90
21123;DHT22;10719;48.130;11.630;2022-10-16T05:31:08;12.90;99.90
21123;DHT22;10719;48.130;11.630;2022-10-16T05:33:34;12.90;99.90
21123;DHT22;10719;48.130;11.630;2022-10-16T05:36:04;12.80;99.90
21123;DHT22;10719;48.130;11.630;2022-10-16T05:38:30;12.80;99.90
21123;DHT22;10719;48.130;11.630;2022-10-16T05:40:56;12.80;99.90
21123;DHT22;10719;48.130;11.630;2022-10-16T05:43:22;12.80;99.90
21123;DHT22;10719;48.130;11.630;2022-10-16T05:45:56;12.80;99.90
21123;DHT22;10719;48.130;11.630;2022-10-16T05:48:22;12.80;99.90
21123;DHT22;10719;48.130;11.630;2022-10-16T05:50:48;12.90;99.90
21123;DHT22;10719;48.130;11.630;2022-10-16T05:53:13;12.90;99.90
21123;DHT22;10719;48.130;11.630;2022-10-16T05:55:39;12.90;99.90
21123;DHT22;10719;48.130;11.630;2022-10-16T05:58:04;13.00;99.90
21123;DHT22;10719;48.130;11.630;2022-10-16T06:00:30;13.00;99.90
21123;DHT22;10719;48.130;11.630;2022-10-16T06:02:55;12.90;99.90
21123;DHT22;10719;48.130;11.630;2022-10-16T06:05:21;12.90;99.90
21123;DHT22;10719;48.130;11.630;2022-10-16T06:07:46;12.90;99.90
21123;DHT22;10719;48.130;11.630;2022-10-16T06:10:12;12.90;99.90
21123;DHT22;10719;48.130;11.630;2022-10-16T06:12:38;12.90;99.90
21123;DHT22;10719;48.130;11.630;2022-10-16T06:15:04;12.90;99.90
21123;DHT22;10719;48.130;11.630;2022-10-16T06:17:29;12.90;99.90
21123;DHT22;10719;48.130;11.630;2022-10-16T06:19:55;12.90;99.90
21123;DHT22;10719;48.130;11.630;2022-10-16T06:22:20;12.90;99.90
21123;DHT22;10719;48.130;11.630;2022-10-16T06:24:46;12.80;99.90
21123;DHT22;10719;48.130;11.630;2022-10-16T06:27:12;12.80;99.90
21123;DHT22;10719;48.130;11.630;2022-10-16T06:29:38;12.80;99.90
21123;DHT22;10719;48.130;11.630;2022-10-16T06:32:04;12.80;99.90
21123;DHT22;10719;48.130;11.630;2022-10-16T06:34:29;12.90;99.90
21123;DHT22;10719;48.130;11.630;2022-10-16T06:36:55;12.90;99.90
21123;DHT22;10719;48.130;11.630;2022-10-16T06:39:20;13.00;99.90
21123;DHT22;10719;48.130;11.630;2022-10-16T06:41:46;13.00;99.90
21123;DHT22;10719;48.130;11.630;2022-10-16T06:44:12;13.00;99.90
21123;DHT22;10719;48.130;11.630;2022-10-16T06:46:37;13.00;99.90
21123;DHT22;10719;48.130;11.630;2022-10-16T06:49:03;13.10;99.90
21123;DHT22;10719;48.130;11.630;2022-10-16T06:51:28;13.10;99.90
21123;DHT22;10719;48.130;11.630;2022-10-16T06:53:55;13.10;99.90
21123;DHT22;10719;48.130;11.630;2022-10-16T06:56:26;13.10;99.90
21123;DHT22;10719;48.130;11.630;2022-10-16T06:58:53;13.20;99.90
21123;DHT22;10719;48.130;11.630;2022-10-16T07:01:20;13.20;99.90
21123;DHT22;10719;48.130;11.630;2022-10-16T07:03:46;13.20;99.90
21123;DHT22;10719;48.130;11.630;2022-10-16T07:06:14;13.20;99.90
21123;DHT22;10719;48.130;11.630;2022-10-16T07:08:42;13.20;99.90
21123;DHT22;10719;48.130;11.630;2022-10-16T07:11:10;13.20;99.90
21123;DHT22;10719;48.130;11.630;2022-10-16T07:13:37;13.20;99.90
21123;DHT22;10719;48.130;11.630;2022-10-16T07:16:10;13.20;99.90
21123;DHT22;10719;48.130;11.630;2022-10-16T07:18:36;13.20;99.90
21123;DHT22;10719;48.130;11.630;2022-10-16T07:21:18;13.30;99.90
21123;DHT22;10719;48.130;11.630;2022-10-16T07:23:49;13.30;99.90
21123;DHT22;10719;48.130;11.630;2022-10-16T07:26:15;13.30;99.90
21123;DHT22;10719;48.130;11.630;2022-10-16T07:28:42;13.40;99.90
21123;DHT22;10719;48.130;11.630;2022-10-16T07:31:11;13.50;99.90
21123;DHT22;10719;48.130;11.630;2022-10-16T07:33:38;13.60;99.90
21123;DHT22;10719;48.130;11.630;2022-10-16T07:36:04;13.60;99.90
21123;DHT22;10719;48.130;11.630;2022-10-16T07:38:30;13.70;99.90
21123;DHT22;10719;48.130;11.630;2022-10-16T07:40:57;13.80;99.90
21123;DHT22;10719;48.130;11.630;2022-10-16T07:43:23;14.00;99.90
21123;DHT22;10719;48.130;11.630;2022-10-16T07:45:49;14.20;99.90
21123;DHT22;10719;48.130;11.630;2022-10-16T07:48:16;14.20;99.90
21123;DHT22;10719;48.130;11.630;2022-10-16T07:50:43;14.40;99.90
21123;DHT22;10719;48.130;11.630;2022-10-16T07:53:09;14.50;99.90
21123;DHT22;10719;48.130;11.630;2022-10-16T07:55:35;14.60;99.90
21123;DHT22;10719;48.130;11.630;2022-10-16T07:58:00;14.80;99.90
21123;DHT22;10719;48.130;11.630;2022-10-16T08:00:26;14.90;99.90
21123;DHT22;10719;48.130;11.630;2022-10-16T08:02:51;15.00;99.90
21123;DHT22;10719;48.130;11.630;2022-10-16T08:05:17;15.00;99.90
21123;DHT22;10719;48.130;11.630;2022-10-16T08:07:43;15.10;99.90
21123;DHT22;10719;48.130;11.630;2022-10-16T08:10:18;15.20;99.90
21123;DHT22;10719;48.130;11.630;2022-10-16T08:12:44;15.30;99.90
21123;DHT22;10719;48.130;11.630;2022-10-16T08:15:10;15.20;99.90
21123;DHT22;10719;48.130;11.630;2022-10-16T08:17:35;15.30;99.90
21123;DHT22;10719;48.130;11.630;2022-10-16T08:20:01;15.50;99.90
21123;DHT22;10719;48.130;11.630;2022-10-16T08:22:27;15.50;99.90
21123;DHT22;10719;48.130;11.630;2022-10-16T08:24:53;15.60;99.90
21123;DHT22;10719;48.130;11.630;2022-10-16T08:27:18;15.70;99.90
21123;DHT22;10719;48.130;11.630;2022-10-16T08:29:44;15.80;99.90
21123;DHT22;10719;48.130;11.630;2022-10-16T08:32:09;16.00;99.90
21123;DHT22;10719;48.130;11.630;2022-10-16T08:34:35;16.20;99.90
21123;DHT22;10719;48.130;11.630;2022-10-16T08:37:00;16.20;99.90
21123;DHT22;10719;48.130;11.630;2022-10-16T08:39:26;16.20;99.90
21123;DHT22;10719;48.130;11.630;2022-10-16T08:45:38;16.40;99.90
21123;DHT22;10719;48.130;11.630;2022-10-16T08:48:53;16.50;99.90
21123;DHT22;10719;48.130;11.630;2022-10-16T08:54:22;17.40;99.90
21123;DHT22;10719;48.130;11.630;2022-10-16T08:56:48;17.60;99.90
21123;DHT22;10719;48.130;11.630;2022-10-16T08:59:16;17.60;99.90
21123;DHT22;10719;48.130;11.630;2022-10-16T09:01:45;17.70;99.90
21123;DHT22;10719;48.130;11.630;2022-10-16T09:04:22;17.80;99.90
21123;DHT22;10719;48.130;11.630;2022-10-16T09:07:00;18.00;99.90
21123;DHT22;10719;48.130;11.630;2022-10-16T09:09:36;18.20;99.90
21123;DHT22;10719;48.130;11.630;2022-10-16T09:15:29;18.30;99.90
21123;DHT22;10719;48.130;11.630;2022-10-16T09:21:36;18.30;99.90
21123;DHT22;10719;48.130;11.630;2022-10-16T09:23:42;18.20;99.90
21123;DHT22;10719;48.130;11.630;2022-10-16T09:26:13;18.30;99.90
21123;DHT22;10719;48.130;11.630;2022-10-16T09:28:40;18.60;99.90
21123;DHT22;10719;48.130;11.630;2022-10-16T09:31:09;19.00;99.90
21123;DHT22;10719;48.130;11.630;2022-10-16T09:33:37;19.00;99.90
21123;DHT22;10719;48.130;11.630;2022-10-16T09:36:05;19.40;99.90
21123;DHT22;10719;48.130;11.630;2022-10-16T09:38:33;19.50;99.90
21123;DHT22;10719;48.130;11.630;2022-10-16T09:41:00;19.50;99.90
21123;DHT22;10719;48.130;11.630;2022-10-16T09:43:54;19.70;99.90
21123;DHT22;10719;48.130;11.630;2022-10-16T09:46:35;20.00;99.90
21123;DHT22;10719;48.130;11.630;2022-10-16T09:49:19;20.40;99.90
21123;DHT22;10719;48.130;11.630;2022-10-16T09:51:45;20.80;99.90
21123;DHT22;10719;48.130;11.630;2022-10-16T09:54:16;21.20;99.90
21123;DHT22;10719;48.130;11.630;2022-10-16T09:56:42;21.60;99.90
21123;DHT22;10719;48.130;11.630;2022-10-16T09:59:15;22.00;99.90
21123;DHT22;10719;48.130;11.630;2022-10-16T10:01:47;22.30;99.90
21123;DHT22;10719;48.130;11.630;2022-10-16T10:04:13;22.60;99.90
21123;DHT22;10719;48.130;11.630;2022-10-16T10:06:45;22.80;99.90
21123;DHT22;10719;48.130;11.630;2022-10-16T10:09:40;23.20;99.90
21123;DHT22;10719;48.130;11.630;2022-10-16T10:12:28;23.30;99.90
21123;DHT22;10719;48.130;11.630;2022-10-16T10:15:02;23.70;99.90
21123;DHT22;10719;48.130;11.630;2022-10-16T10:17:29;23.90;99.90
21123;DHT22;10719;48.130;11.630;2022-10-16T10:19:56;24.00;99.90
21123;DHT22;10719;48.130;11.630;2022-10-16T10:22:38;24.20;99.90
21123;DHT22;10719;48.130;11.630;2022-10-16T10:39:03;25.60;99.90
21123;DHT22;10719;48.130;11.630;2022-10-16T10:44:53;26.00;99.90
21123;DHT22;10719;48.130;11.630;2022-10-16T10:50:07;26.60;99.90
21123;DHT22;10719;48.130;11.630;2022-10-16T10:57:42;26.60;99.90
21123;DHT22;10719;48.130;11.630;2022-10-16T11:03:46;26.70;99.90
21123;DHT22;10719;48.130;11.630;2022-10-16T11:06:20;27.20;99.90
21123;DHT22;10719;48.130;11.630;2022-10-16T11:08:59;27.30;99.90
21123;DHT22;10719;48.130;11.630;2022-10-16T11:11:35;27.20;99.90
21123;DHT22;10719;48.130;11.630;2022-10-16T11:14:11;27.40;99.90
21123;DHT22;10719;48.130;11.630;2022-10-16T11:16:44;27.00;99.90
21123;DHT22;10719;48.130;11.630;2022-10-16T11:22:28;27.90;99.90
21123;DHT22;10719;48.130;11.630;2022-10-16T11:25:26;28.30;99.90
21123;DHT22;10719;48.130;11.630;2022-10-16T11:27:57;28.40;99.90
21123;DHT22;10719;48.130;11.630;2022-10-16T11:30:28;28.40;99.90
21123;DHT22;10719;48.130;11.630;2022-10-16T11:33:25;28.50;99.90
21123;DHT22;10719;48.130;11.630;2022-10-16T11:35:59;28.50;99.90
21123;DHT22;10719;48.130;11.630;2022-10-16T11:38:38;29.20;99.90
21123;DHT22;10719;48.130;11.630;2022-10-16T11:41:32;29.40;99.90
21123;DHT22;10719;48.130;11.630;2022-10-16T11:55:21;29.80;99.90
21123;DHT22;10719;48.130;11.630;2022-10-16T11:57:52;29.70;99.90
21123;DHT22;10719;48.130;11.630;2022-10-16T12:00:27;29.80;99.90
21123;DHT22;10719;48.130;11.630;2022-10-16T12:08:44;30.30;99.90
21123;DHT22;10719;48.130;11.630;2022-10-16T12:16:55;30.10;99.90
21123;DHT22;10719;48.130;11.630;2022-10-16T12:19:23;30.40;99.90
21123;DHT22;10719;48.130;11.630;2022-10-16T12:21:51;30.40;99.90
21123;DHT22;10719;48.130;11.630;2022-10-16T12:24:31;30.40;99.90
21123;DHT22;10719;48.130;11.630;2022-10-16T12:26:57;29.50;99.90
21123;DHT22;10719;48.130;11.630;2022-10-16T12:29:36;29.90;99.90
21123;DHT22;10719;48.130;11.630;2022-10-16T12:32:22;29.70;99.90
21123;DHT22;10719;48.130;11.630;2022-10-16T12:34:51;28.90;99.90
21123;DHT22;10719;48.130;11.630;2022-10-16T12:37:27;28.80;99.90
21123;DHT22;10719;48.130;11.630;2022-10-16T12:39:54;28.80;99.90
21123;DHT22;10719;48.130;11.630;2022-10-16T12:42:33;29.00;99.90
21123;DHT22;10719;48.130;11.630;2022-10-16T12:44:59;29.00;99.90
21123;DHT22;10719;48.130;11.630;2022-10-16T12:49:57;29.00;99.90
21123;DHT22;10719;48.130;11.630;2022-10-16T12:52:41;29.10;99.90
21123;DHT22;10719;48.130;11.630;2022-10-16T12:55:16;28.80;99.90
21123;DHT22;10719;48.130;11.630;2022-10-16T12:58:21;29.10;99.90
21123;DHT22;10719;48.130;11.630;2022-10-16T13:06:43;28.70;99.90
21123;DHT22;10719;48.130;11.630;2022-10-16T13:09:32;28.70;99.90
21123;DHT22;10719;48.130;11.630;2022-10-16T13:18:28;29.00;99.90
21123;DHT22;10719;48.130;11.630;2022-10-16T13:24:10;29.00;99.90
21123;DHT22;10719;48.130;11.630;2022-10-16T13:29:33;28.90;99.90
21123;DHT22;10719;48.130;11.630;2022-10-16T13:32:01;28.70;99.90
21123;DHT22;10719;48.130;11.630;2022-10-16T13:34:32;28.60;99.90
21123;DHT22;10719;48.130;11.630;2022-10-16T13:36:57;28.50;99.90
21123;DHT22;10719;48.130;11.630;2022-10-16T13:44:35;28.00;99.90
21123;DHT22;10719;48.130;11.630;2022-10-16T13:47:02;27.50;99.90
21123;DHT22;10719;48.130;11.630;2022-10-16T13:49:28;27.30;99.90
21123;DHT22;10719;48.130;11.630;2022-10-16T13:51:55;27.00;99.90
21123;DHT22;10719;48.130;11.630;2022-10-16T13:54:22;26.80;99.90
21123;DHT22;10719;48.130;11.630;2022-10-16T13:56:48;26.40;99.90
21123;DHT22;10719;48.130;11.630;2022-10-16T14:01:50;26.10;99.90
21123;DHT22;10719;48.130;11.630;2022-10-16T14:04:16;25.80;99.90
21123;DHT22;10719;48.130;11.630;2022-10-16T14:06:44;25.70;99.90
21123;DHT22;10719;48.130;11.630;2022-10-16T14:09:24;25.60;99.90
21123;DHT22;10719;48.130;11.630;2022-10-16T14:12:00;25.30;99.90
21123;DHT22;10719;48.130;11.630;2022-10-16T14:14:34;25.30;99.90
21123;DHT22;10719;48.130;11.630;2022-10-16T14:17:02;25.30;99.90
21123;DHT22;10719;48.130;11.630;2022-10-16T14:19:29;25.20;99.90
21123;DHT22;10719;48.130;11.630;2022-10-16T14:21:56;25.20;99.90
21123;DHT22;10719;48.130;11.630;2022-10-16T14:24:31;25.10;99.90
21123;DHT22;10719;48.130;11.630;2022-10-16T14:26:57;25.10;99.90
21123;DHT22;10719;48.130;11.630;2022-10-16T14:29:25;24.90;99.90
21123;DHT22;10719;48.130;11.630;2022-10-16T14:32:22;25.00;99.90
21123;DHT22;10719;48.130;11.630;2022-10-16T14:34:53;25.20;99.90
21123;DHT22;10719;48.130;11.630;2022-10-16T14:37:27;25.10;99.90
21123;DHT22;10719;48.130;11.630;2022-10-16T14:39:54;25.00;99.90
21123;DHT22;10719;48.130;11.630;2022-10-16T14:42:22;25.00;99.90
21123;DHT22;10719;48.130;11.630;2022-10-16T14:44:50;24.80;99.90
21123;DHT22;10719;48.130;11.630;2022-10-16T14:47:19;24.60;99.90
21123;DHT22;10719;48.130;11.630;2022-10-16T14:49:49;24.30;99.90
21123;DHT22;10719;48.130;11.630;2022-10-16T14:52:15;24.10;99.90
21123;DHT22;10719;48.130;11.630;2022-10-16T14:54:41;24.00;99.90
21123;DHT22;10719;48.130;11.630;2022-10-16T14:57:16;23.80;99.90
21123;DHT22;10719;48.130;11.630;2022-10-16T14:59:43;23.60;99.90
21123;DHT22;10719;48.130;11.630;2022-10-16T15:04:48;23.20;99.90
21123;DHT22;10719;48.130;11.630;2022-10-16T15:07:14;23.10;99.90
21123;DHT22;10719;48.130;11.630;2022-10-16T15:09:39;23.10;99.90
21123;DHT22;10719;48.130;11.630;2022-10-16T15:12:05;23.10;99.90
21123;DHT22;10719;48.130;11.630;2022-10-16T15:14:31;23.00;99.90
21123;DHT22;10719;48.130;11.630;2022-10-16T15:16:56;23.00;99.90
21123;DHT22;10719;48.130;11.630;2022-10-16T15:19:22;23.00;99.90
21123;DHT22;10719;48.130;11.630;2022-10-16T15:21:48;22.80;99.90
21123;DHT22;10719;48.130;11.630;2022-10-16T15:24:14;22.80;99.90
21123;DHT22;10719;48.130;11.630;2022-10-16T15:26:40;22.80;99.90
21123;DHT22;10719;48.130;11.630;2022-10-16T15:29:06;22.80;99.90
21123;DHT22;10719;48.130;11.630;2022-10-16T15:31:32;22.70;99.90
21123;DHT22;10719;48.130;11.630;2022-10-16T15:33:57;22.50;99.90
21123;DHT22;10719;48.130;11.630;2022-10-16T15:36:33;22.50;99.90
21123;DHT22;10719;48.130;11.630;2022-10-16T15:38:59;22.40;99.90
21123;DHT22;10719;48.130;11.630;2022-10-16T15:41:25;22.40;99.90
21123;DHT22;10719;48.130;11.630;2022-10-16T15:43:51;22.30;99.90
21123;DHT22;10719;48.130;11.630;2022-10-16T15:46:19;22.20;99.90
21123;DHT22;10719;48.130;11.630;2022-10-16T15:48:46;22.10;99.90
21123;DHT22;10719;48.130;11.630;2022-10-16T15:51:11;22.00;99.90
21123;DHT22;10719;48.130;11.630;2022-10-16T15:53:37;22.00;99.90
21123;DHT22;10719;48.130;11.630;2022-10-16T15:56:07;21.90;99.90
21123;DHT22;10719;48.130;11.630;2022-10-16T15:58:33;21.80;99.90
21123;DHT22;10719;48.130;11.630;2022-10-16T16:01:00;21.70;99.90
21123;DHT22;10719;48.130;11.630;2022-10-16T16:03:27;21.60;99.90
21123;DHT22;10719;48.130;11.630;2022-10-16T16:05:53;21.60;99.90
21123;DHT22;10719;48.130;11.630;2022-10-16T16:08:19;21.40;99.90
21123;DHT22;10719;48.130;11.630;2022-10-16T16:10:45;21.40;99.90
21123;DHT22;10719;48.130;11.630;2022-10-16T16:13:11;21.40;99.90
21123;DHT22;10719;48.130;11.630;2022-10-16T16:15:40;21.20;99.90
21123;DHT22;10719;48.130;11.630;2022-10-16T16:18:06;21.20;99.90
21123;DHT22;10719;48.130;11.630;2022-10-16T16:20:31;21.10;99.90
21123;DHT22;10719;48.130;11.630;2022-10-16T16:22:57;21.00;99.90
21123;DHT22;10719;48.130;11.630;2022-10-16T16:25:23;20.90;99.90
21123;DHT22;10719;48.130;11.630;2022-10-16T16:27:49;20.90;99.90
21123;DHT22;10719;48.130;11.630;2022-10-16T16:30:14;20.80;99.90
21123;DHT22;10719;48.130;11.630;2022-10-16T16:32:40;20.80;99.90
21123;DHT22;10719;48.130;11.630;2022-10-16T16:35:06;20.70;99.90
21123;DHT22;10719;48.130;11.630;2022-10-16T16:37:32;20.60;99.90
21123;DHT22;10719;48.130;11.630;2022-10-16T16:39:57;20.50;99.90
21123;DHT22;10719;48.130;11.630;2022-10-16T16:42:26;20.30;99.90
21123;DHT22;10719;48.130;11.630;2022-10-16T16:44:52;20.30;99.90
21123;DHT22;10719;48.130;11.630;2022-10-16T16:47:18;20.20;99.90
21123;DHT22;10719;48.130;11.630;2022-10-16T16:49:44;20.10;99.90
21123;DHT22;10719;48.130;11.630;2022-10-16T16:52:09;20.00;99.90
21123;DHT22;10719;48.130;11.630;2022-10-16T16:54:35;19.90;99.90
21123;DHT22;10719;48.130;11.630;2022-10-16T16:57:00;19.80;99.90
21123;DHT22;10719;48.130;11.630;2022-10-16T16:59:26;19.70;99.90
21123;DHT22;10719;48.130;11.630;2022-10-16T17:01:52;19.60;99.90
21123;DHT22;10719;48.130;11.630;2022-10-16T17:04:18;19.50;99.90
21123;DHT22;10719;48.130;11.630;2022-10-16T17:06:44;19.50;99.90
21123;DHT22;10719;48.130;11.630;2022-10-16T17:09:10;19.50;99.90
21123;DHT22;10719;48.130;11.630;2022-10-16T17:11:38;19.50;99.90
21123;DHT22;10719;48.130;11.630;2022-10-16T17:14:06;19.50;99.90
21123;DHT22;10719;48.130;11.630;2022-10-16T17:16:34;19.40;99.90
21123;DHT22;10719;48.130;11.630;2022-10-16T17:19:06;19.40;99.90
21123;DHT22;10719;48.130;11.630;2022-10-16T17:21:32;19.30;99.90